Time;durP1;ratioP1;P1;durP2;ratioP2;P2;SDS_P1;SDS_P2;PMS_P1;PMS_P2;Temp;Humidity;BMP_temperature;BMP_pressure;BME280_temperature;BME280_humidity;BME280_pressure;Samples;Min_cycle;Max_cycle;Signal;HPM_P1;HPM_P2
2023/08/26 00:02:20;;;;;;;13.82;7.97;;;;;;;26.28;57.04;100845.16;21081960;28;20036;-59
2023/08/26 00:12:21;;;;;;;17.90;7.53;;;;;;;26.28;57.04;100833.09;21078953;28;20073;-57
2023/08/26 00:22:24;;;;;;;13.75;7.57;;;;;;;26.30;56.83;100842.88;21067131;28;20544;-59
2023/08/26 00:32:27;;;;;;;16.30;7.40;;;;;;;26.31;56.14;100841.72;21071932;28;20036;-60
2023/08/26 00:42:28;;;;;;;10.27;6.60;;;;;;;26.36;56.19;100830.34;21064496;28;20403;-59
2023/08/26 00:52:30;;;;;;;15.93;6.63;;;;;;;26.43;56.19;100863.59;21055117;28;20036;-59
2023/08/26 01:02:32;;;;;;;12.15;6.18;;;;;;;26.46;55.98;100851.72;21061055;28;20603;-59
2023/08/26 01:12:47;;;;;;;15.85;6.38;;;;;;;26.45;55.92;100858.50;21044203;28;20048;-60
2023/08/26 01:22:54;;;;;;;9.32;6.07;;;;;;;26.55;55.58;100865.81;21068516;28;20058;-59
2023/08/26 01:33:07;;;;;;;9.15;5.70;;;;;;;26.53;55.67;100862.50;21072025;28;20048;-59
2023/08/26 01:43:10;;;;;;;8.32;6.20;;;;;;;26.62;55.29;100880.22;21040567;28;20037;-60
2023/08/26 01:53:11;;;;;;;9.57;5.70;;;;;;;26.64;55.30;100879.91;21058178;28;20044;-59
2023/08/26 02:03:12;;;;;;;8.02;5.97;;;;;;;26.68;55.51;100881.75;21053009;28;20047;-59
2023/08/26 02:13:15;;;;;;;7.65;5.40;;;;;;;26.68;55.18;100876.13;21047243;28;20044;-59
2023/08/26 02:23:17;;;;;;;7.20;5.45;;;;;;;26.68;55.21;100887.34;21054309;28;20044;-59
2023/08/26 02:33:19;;;;;;;6.38;5.32;;;;;;;26.69;55.14;100886.19;21062354;28;20133;-60
2023/08/26 02:43:29;;;;;;;7.95;5.63;;;;;;;26.75;55.32;100893.31;21063150;28;20040;-60
2023/08/26 02:53:31;;;;;;;8.05;5.40;;;;;;;26.80;55.18;100890.41;21063660;28;20097;-59
2023/08/26 03:03:35;;;;;;;7.07;5.22;;;;;;;26.78;54.87;100898.31;21069311;28;20048;-61
2023/08/26 03:13:36;;;;;;;6.38;5.07;;;;;;;26.85;54.90;100909.91;21075383;28;20086;-58
2023/08/26 03:23:37;;;;;;;6.10;4.80;;;;;;;26.90;55.01;100910.94;21077605;28;20483;-59
2023/08/26 03:33:39;;;;;;;7.18;5.35;;;;;;;26.94;54.80;100907.16;21066535;28;20325;-59
2023/08/26 03:43:40;;;;;;;6.45;5.75;;;;;;;26.98;54.84;100901.69;21082594;28;20044;-58
2023/08/26 03:53:42;;;;;;;7.03;5.72;;;;;;;26.99;54.96;100892.16;21077667;28;20047;-60
2023/08/26 04:03:43;;;;;;;8.38;4.72;;;;;;;27.00;54.74;100888.19;21056800;28;20048;-60
2023/08/26 04:13:47;;;;;;;6.00;5.00;;;;;;;27.03;54.70;100898.75;21082701;28;20047;-59
2023/08/26 04:23:49;;;;;;;5.45;4.82;;;;;;;27.03;54.74;100895.94;21082490;28;20044;-59
2023/08/26 04:33:52;;;;;;;5.47;4.97;;;;;;;27.07;54.82;100888.53;21080139;28;20043;-59
2023/08/26 04:43:53;;;;;;;6.38;4.93;;;;;;;27.08;54.69;100891.06;21066859;28;20487;-59
2023/08/26 04:53:55;;;;;;;4.72;4.32;;;;;;;27.14;54.77;100899.34;21078790;28;20048;-56
2023/08/26 05:03:56;;;;;;;7.18;4.38;;;;;;;27.14;54.80;100888.09;21057772;28;20450;-59
2023/08/26 05:13:57;;;;;;;6.05;5.03;;;;;;;27.08;54.75;100873.34;21077013;28;20036;-58
2023/08/26 05:24:03;;;;;;;5.70;4.30;;;;;;;27.17;54.70;100862.16;21071114;28;20040;-60
2023/08/26 05:34:04;;;;;;;5.93;4.40;;;;;;;27.10;54.58;100826.13;21080980;28;20048;-59
2023/08/26 05:44:06;;;;;;;4.78;4.30;;;;;;;27.19;54.54;100835.41;21079324;28;20047;-58
2023/08/26 05:54:07;;;;;;;4.88;4.15;;;;;;;27.22;54.58;100831.94;21037024;28;20040;-59
2023/08/26 06:04:08;;;;;;;5.10;4.60;;;;;;;27.14;54.47;100801.84;21077392;28;20036;-58
2023/08/26 06:14:10;;;;;;;6.63;4.65;;;;;;;27.23;54.58;100825.16;21077803;28;20044;-57
2023/08/26 06:24:11;;;;;;;5.32;4.32;;;;;;;27.15;54.32;100817.53;21059570;28;20476;-59
2023/08/26 06:34:13;;;;;;;4.80;3.80;;;;;;;27.29;54.54;100834.25;21016358;28;20426;-59
2023/08/26 06:44:14;;;;;;;5.20;4.60;;;;;;;27.31;54.42;100841.22;21072969;28;20044;-58
2023/08/26 06:54:15;;;;;;;4.75;4.10;;;;;;;27.29;54.49;100823.84;21070027;28;20063;-60
2023/08/26 07:04:17;;;;;;;5.30;3.70;;;;;;;27.30;54.41;100797.41;21063333;28;20040;-59
2023/08/26 07:14:18;;;;;;;4.40;3.97;;;;;;;27.33;54.42;100796.75;21070038;28;20044;-59
2023/08/26 07:24:19;;;;;;;3.90;3.50;;;;;;;27.33;54.34;100796.75;21066636;28;20495;-59
2023/08/26 07:34:21;;;;;;;4.20;3.80;;;;;;;27.35;54.20;100786.03;21042613;28;20541;-59
2023/08/26 07:44:22;;;;;;;4.40;3.67;;;;;;;27.35;54.34;100788.84;21064656;28;20032;-59
2023/08/26 07:54:24;;;;;;;4.68;3.80;;;;;;;27.42;54.41;100787.50;21083266;28;20040;-59
2023/08/26 08:04:25;;;;;;;3.72;3.42;;;;;;;27.38;54.31;100778.91;21082960;28;20040;-58
2023/08/26 08:14:26;;;;;;;4.65;3.55;;;;;;;27.38;54.45;100783.72;21085988;28;20040;-59
2023/08/26 08:24:28;;;;;;;3.50;3.20;;;;;;;27.41;54.21;100774.63;21063405;28;20039;-59
2023/08/26 08:34:29;;;;;;;4.20;3.72;;;;;;;27.42;54.38;100779.09;21083951;28;20104;-59
2023/08/26 08:44:34;;;;;;;4.18;3.78;;;;;;;27.45;54.31;100770.00;21081573;28;20044;-59
2023/08/26 08:54:36;;;;;;;3.90;3.47;;;;;;;27.44;54.41;100779.56;21078597;28;20100;-58
2023/08/26 09:04:38;;;;;;;3.85;3.03;;;;;;;27.45;54.33;100770.00;21081053;28;20032;-60
2023/08/26 09:14:39;;;;;;;3.53;2.90;;;;;;;27.46;54.18;100771.66;21077213;28;20137;-59
2023/08/26 09:24:41;;;;;;;3.72;3.30;;;;;;;27.46;54.40;100768.84;21080464;28;20105;-60
2023/08/26 09:34:44;;;;;;;3.10;2.67;;;;;;;27.49;53.99;100787.84;21076456;28;20102;-58
2023/08/26 09:44:46;;;;;;;3.50;3.13;;;;;;;27.49;54.19;100804.69;21076816;28;20044;-59
2023/08/26 09:54:52;;;;;;;3.35;2.83;;;;;;;27.45;54.10;100812.97;21077104;28;20109;-59
2023/08/26 10:04:56;;;;;;;3.17;2.90;;;;;;;27.45;54.13;100827.03;21077602;28;20048;-58
2023/08/26 10:15:01;;;;;;;3.70;3.25;;;;;;;27.46;54.23;100822.25;21074737;28;20185;-59
2023/08/26 10:25:04;;;;;;;3.10;2.80;;;;;;;27.45;54.12;100820.59;21069074;28;20484;-60
2023/08/26 10:35:12;;;;;;;2.92;2.70;;;;;;;27.46;54.34;100833.47;21069800;28;20571;-58
2023/08/26 10:45:23;;;;;;;3.58;3.22;;;;;;;27.44;54.24;100852.63;21057510;28;20040;-59
2023/08/26 10:55:30;;;;;;;3.05;2.75;;;;;;;27.47;54.23;100866.03;21074087;28;20044;-59
2023/08/26 11:05:32;;;;;;;3.08;2.78;;;;;;;27.48;54.17;100862.06;21068852;28;20456;-59
2023/08/26 11:15:43;;;;;;;3.13;2.83;;;;;;;27.46;54.26;100867.19;21060043;28;20044;-59
2023/08/26 11:25:44;;;;;;;2.92;2.63;;;;;;;27.50;54.30;100868.22;21065918;28;20036;-58
2023/08/26 11:35:47;;;;;;;3.00;2.70;;;;;;;27.50;54.24;100876.63;21070564;28;20132;-58
2023/08/26 11:45:50;;;;;;;2.50;2.30;;;;;;;27.50;54.45;100883.09;21074683;28;20495;-58
2023/08/26 11:55:52;;;;;;;3.05;2.75;;;;;;;27.51;54.40;100897.97;21087783;28;20051;-58
2023/08/26 12:05:55;;;;;;;2.83;2.60;;;;;;;27.53;54.18;100902.09;21081316;28;20475;-58
2023/08/26 12:15:57;;;;;;;2.63;2.42;;;;;;;27.56;54.48;100907.06;21084407;28;20078;-58
2023/08/26 12:26:12;;;;;;;3.25;2.85;;;;;;;27.54;54.39;100897.31;21069690;28;20479;-58
2023/08/26 12:36:13;;;;;;;2.58;2.38;;;;;;;27.42;51.51;100911.16;21064807;28;20039;-59
2023/08/26 12:46:15;;;;;;;2.42;2.22;;;;;;;26.61;49.03;100920.66;21073883;28;20047;-59
2023/08/26 12:56:20;;;;;;;2.53;2.33;;;;;;;26.67;56.24;100935.41;21077331;28;20040;-59
2023/08/26 13:06:21;;;;;;;3.25;2.65;;;;;;;26.88;57.46;100955.34;21078366;28;20032;-59
2023/08/26 13:16:22;;;;;;;2.45;2.25;;;;;;;27.03;56.30;100969.81;21076963;28;20040;-59
2023/08/26 13:26:24;;;;;;;3.05;2.75;;;;;;;27.12;56.13;100969.84;21076777;28;20036;-59
2023/08/26 13:36:29;;;;;;;2.40;2.20;;;;;;;27.25;55.65;100974.56;21076019;28;20044;-58
2023/08/26 13:46:30;;;;;;;3.70;3.08;;;;;;;27.30;55.52;100988.47;21050139;28;20032;-59
2023/08/26 13:56:32;;;;;;;2.67;2.33;;;;;;;27.33;55.20;100999.06;21051613;28;20172;-58
2023/08/26 14:06:33;;;;;;;2.55;2.35;;;;;;;27.37;55.09;100988.00;20955849;28;20544;-58
2023/08/26 14:16:35;;;;;;;7.50;3.88;;;;;;;27.05;53.93;100991.94;21009559;28;20032;-59
2023/08/26 14:26:36;;;;;;;11.85;4.45;;;;;;;26.76;53.30;100989.63;21066603;28;20574;-59
2023/08/26 14:36:39;;;;;;;10.00;4.53;;;;;;;26.58;52.88;100991.47;21066600;28;20102;-62
2023/08/26 14:46:41;;;;;;;8.65;4.00;;;;;;;26.43;52.22;100991.78;21068575;28;20376;-62
2023/08/26 14:56:42;;;;;;;7.30;3.78;;;;;;;26.33;51.96;100984.44;21074047;28;20047;-62
2023/08/26 15:06:44;;;;;;;7.72;3.97;;;;;;;26.20;51.63;100974.09;21092453;28;20040;-63
2023/08/26 15:16:45;;;;;;;8.75;3.53;;;;;;;26.12;51.15;100958.88;21076632;28;20044;-61
2023/08/26 15:26:47;;;;;;;5.25;3.58;;;;;;;26.03;51.31;100955.16;21036927;28;20101;-61
2023/08/26 15:36:48;;;;;;;6.90;4.13;;;;;;;24.06;52.15;100640.66;21058082;28;20044;-61
2023/08/26 15:46:50;;;;;;;4.25;3.05;;;;;;;26.12;52.74;100963.66;21083316;28;20040;-61
2023/08/26 15:56:51;;;;;;;5.22;3.85;;;;;;;26.10;52.84;100956.38;21067223;28;20043;-62
2023/08/26 16:06:52;;;;;;;6.80;3.53;;;;;;;26.14;52.60;100944.53;21077201;28;20070;-63
2023/08/26 16:16:54;;;;;;;4.30;3.22;;;;;;;26.04;51.95;100940.00;21077210;28;20105;-61
2023/08/26 16:26:55;;;;;;;4.70;3.35;;;;;;;26.06;52.67;100944.13;21080596;28;20445;-62
2023/08/26 16:36:57;;;;;;;4.00;3.33;;;;;;;26.09;52.47;100925.84;21078307;28;20491;-62
2023/08/26 16:46:58;;;;;;;5.40;3.35;;;;;;;26.07;52.72;100923.38;21083947;28;20391;-61
2023/08/26 16:56:59;;;;;;;3.47;3.17;;;;;;;26.07;52.52;100914.09;21077772;28;20117;-62
2023/08/26 17:07:01;;;;;;;4.97;4.18;;;;;;;26.07;52.59;100916.91;21080803;28;20077;-61
2023/08/26 17:17:02;;;;;;;3.78;3.17;;;;;;;25.95;52.37;100902.63;21073210;28;20078;-64
2023/08/26 17:27:07;;;;;;;3.70;3.30;;;;;;;25.99;52.29;100909.28;21075995;28;20043;-63
2023/08/26 17:37:08;;;;;;;4.05;3.60;;;;;;;26.04;52.35;100918.38;21069908;28;20048;-63
2023/08/26 17:47:09;;;;;;;4.80;3.42;;;;;;;26.00;52.50;100910.91;21064945;28;20040;-63
2023/08/26 17:57:11;;;;;;;4.63;3.80;;;;;;;25.97;52.34;100895.53;21069719;28;20071;-63
2023/08/26 18:07:12;;;;;;;3.58;3.28;;;;;;;25.94;51.79;100882.19;21072341;28;20425;-63
2023/08/26 18:17:14;;;;;;;3.92;3.47;;;;;;;25.86;50.75;100877.31;21073201;28;20047;-62
2023/08/26 18:27:15;;;;;;;4.63;3.63;;;;;;;25.84;52.35;100866.44;21069855;28;20039;-63
2023/08/26 18:37:16;;;;;;;3.63;3.33;;;;;;;25.95;52.10;100863.38;21069555;28;20055;-62
2023/08/26 18:47:18;;;;;;;4.50;3.70;;;;;;;26.01;51.94;100853.69;21071866;28;20066;-62
2023/08/26 18:57:19;;;;;;;3.85;3.22;;;;;;;25.95;52.02;100846.56;21062902;28;20037;-63
2023/08/26 19:07:21;;;;;;;4.00;3.60;;;;;;;25.50;51.74;100756.78;21065861;28;20099;-66
2023/08/26 19:17:22;;;;;;;3.80;3.35;;;;;;;25.89;51.46;100802.94;21061457;28;20078;-63
2023/08/26 19:27:24;;;;;;;4.00;3.50;;;;;;;25.90;51.93;100815.84;21053461;28;20040;-65
2023/08/26 19:37:25;;;;;;;5.10;3.22;;;;;;;25.94;51.95;100822.47;21068236;28;20043;-63
2023/08/26 19:47:26;;;;;;;5.75;3.45;;;;;;;25.91;52.11;100797.88;21078717;28;20484;-63
2023/08/26 19:57:28;;;;;;;4.82;3.03;;;;;;;25.91;52.07;100787.47;21042673;28;20098;-62
2023/08/26 20:07:29;;;;;;;5.00;3.72;;;;;;;25.92;52.48;100791.13;21076930;28;20032;-62
2023/08/26 20:17:31;;;;;;;6.97;3.95;;;;;;;25.88;51.78;100773.28;21057300;28;20559;-64
2023/08/26 20:27:35;;;;;;;5.95;3.47;;;;;;;25.74;51.35;100802.16;21057783;28;20442;-62
2023/08/26 20:37:40;;;;;;;5.13;3.60;;;;;;;25.66;51.31;100783.31;21076758;28;20044;-64
2023/08/26 20:47:44;;;;;;;4.40;4.00;;;;;;;25.66;51.27;100802.06;21067994;28;20043;-63
2023/08/26 20:57:45;;;;;;;4.80;3.75;;;;;;;25.63;51.17;100800.75;21074261;28;20459;-63
2023/08/26 21:07:50;;;;;;;6.30;4.22;;;;;;;25.61;51.02;100797.41;21074624;28;20384;-64
2023/08/26 21:17:51;;;;;;;4.00;3.60;;;;;;;25.57;51.01;100824.44;21081456;28;20120;-63
2023/08/26 21:27:53;;;;;;;4.20;3.70;;;;;;;25.55;50.90;100818.31;21080467;28;20437;-62
2023/08/26 21:37:57;;;;;;;4.75;3.67;;;;;;;25.53;51.04;100829.00;21066682;28;20044;-63
2023/08/26 21:47:58;;;;;;;4.88;3.95;;;;;;;25.51;51.06;100834.09;21069675;28;20105;-62
2023/08/26 21:58:04;;;;;;;4.43;3.33;;;;;;;25.47;50.97;100841.47;21068647;28;20040;-63
2023/08/26 22:08:06;;;;;;;4.28;3.65;;;;;;;25.44;50.80;100836.50;21076278;28;20066;-63
2023/08/26 22:18:09;;;;;;;4.25;3.85;;;;;;;25.40;50.89;100832.66;21075047;28;20376;-64
2023/08/26 22:28:10;;;;;;;5.88;4.22;;;;;;;25.46;51.48;100831.41;21071053;28;20040;-64
2023/08/26 22:38:12;;;;;;;4.85;4.35;;;;;;;25.53;51.69;100846.66;21072914;28;20078;-64
2023/08/26 22:48:13;;;;;;;6.07;4.20;;;;;;;25.56;51.86;100865.63;21076431;28;20032;-63
2023/08/26 22:58:18;;;;;;;4.63;4.20;;;;;;;25.44;51.61;100848.53;21068063;28;20044;-63
2023/08/26 23:08:19;;;;;;;4.90;3.90;;;;;;;25.57;51.01;100867.31;21041669;28;20483;-63
2023/08/26 23:18:23;;;;;;;4.70;4.13;;;;;;;25.51;50.57;100864.91;21047053;28;20040;-63
2023/08/26 23:28:26;;;;;;;6.55;4.50;;;;;;;25.35;50.50;100862.44;21082667;28;20044;-63
2023/08/26 23:38:27;;;;;;;6.03;4.45;;;;;;;25.30;50.45;100876.56;21089179;28;20100;-63
2023/08/26 23:48:29;;;;;;;5.13;4.15;;;;;;;25.30;51.17;100882.16;21024232;28;20041;-63
2023/08/26 23:58:30;;;;;;;8.30;4.35;;;;;;;25.35;51.33;100890.47;21067137;28;20040;-63
